Pelagia — PGRQ — position and weather

sailwx.info

Track history (hours):
 
Tides and Currents Weather Stations Pressure Air Temp Water Temp Dewpoint Dewpoint Depression Visibility Wind Speed Wind Dir Waves Ship Positions

Oceanographic research ship Pelagia (Netherlands)

Detailed information on ship capabilities available from University of Delaware's Ocean Information Center and ARCUS's ALIAS (Arctic Logistics Information and Support) project.

Last reported at 2019-Oct-08 19:50 UTC. Time now 2019-Oct-14 10:26 UTC.
Position N 53°39' E 005°21'.

Length 66 m; beam 13 m.

Type: Dredging. MMSI: 244925000.

Date/timePositionNaut miles runAvg speedWind from/ knotsBaromVisibWave heightAir tempDewpointWater temp
2019-Oct-08 19:50N 53°39' E 005°21'1 1.8
2019-Oct-08 19:06N 53°40' E 005°19'1 3.1
2019-Oct-08 18:56N 53°39' E 005°20'1 2.5
2019-Oct-08 18:24N 53°39' E 005°22'1 0.4
2019-Oct-08 16:35N 53°39' E 005°21'0 1.6
2019-Oct-08 16:23N 53°39' E 005°20'1 0.4
2019-Oct-08 14:58N 53°40' E 005°20'0 0.2
2019-Oct-08 12:58N 53°40' E 005°19'0 0.2
2019-Oct-08 11:19N 53°40' E 005°20'3 0.4
2019-Oct-08 04:27N 53°42' E 005°23'3 5.5
2019-Oct-08 03:59N 53°41' E 005°19'3 6.3
2019-Oct-08 03:30N 53°38' E 005°19'4 9.0
2019-Oct-08 03:01N 53°33' E 005°22'3 6.5
2019-Oct-08 02:30N 53°30' E 005°22'3 6.8
2019-Oct-08 02:00N 53°29' E 005°16'4 6.9
2019-Oct-08 01:29N 53°28' E 005°11'3 7.0
2019-Oct-08 01:00N 53°26' E 005°05'4 7.4
2019-Oct-08 00:30N 53°25' E 004°60'2 4.4
2019-Oct-08 00:01N 53°23' E 004°59'1 1.5
2019-Oct-07 23:31N 53°23' E 004°60'0 0.4
2019-Oct-07 22:58N 53°22' E 004°59'1 1.3
2019-Oct-07 22:27N 53°22' E 004°59'1 1.2
2019-Oct-07 22:00N 53°22' E 004°59'0 0.9
2019-Oct-07 21:30N 53°22' E 004°59'0 0.3
2019-Oct-07 20:56N 53°22' E 004°59'1 3.3
2019-Oct-07 20:30N 53°21' E 004°57'11 9.3
2019-Oct-07 19:18N 53°13' E 004°45'3 9.7
2019-Oct-07 18:58N 53°10' E 004°42'4 9.6
2019-Oct-07 18:30N 53°06' E 004°40'5 9.7
2019-Oct-07 18:00N 53°02' E 004°36'3 7.0
2019-Oct-07 17:30N 52°58' E 004°33'2 0.9
2019-Oct-07 15:29N 52°57' E 004°33'4 9.5
2019-Oct-07 15:00N 52°52' E 004°35'9 7.4
2019-Oct-07 13:51N 52°59' E 004°44'3 8.4
2019-Oct-07 13:30N 53°00' E 004°48'0 0.5
2019-Oct-07 12:52N 53°00' E 004°48'0 0.0
2019-Oct-07 12:25N 53°00' E 004°48'0 0.0
2019-Oct-07 11:43N 53°00' E 004°48'0 0.0
2019-Oct-07 11:28N 53°00' E 004°48'0 0.0
2019-Oct-07 10:55N 53°00' E 004°48'0 0.0
2019-Oct-07 10:28N 53°00' E 004°48'0 0.0
2019-Oct-07 09:55N 53°00' E 004°48'0 0.0
2019-Oct-07 09:28N 53°00' E 004°48'0 0.0
2019-Oct-07 08:55N 53°00' E 004°48'0 0.0
2019-Oct-07 08:25N 53°00' E 004°48'0 0.0
2019-Oct-07 07:52N 53°00' E 004°48'0 0.0
2019-Oct-07 07:28N 53°00' E 004°48'0 0.0
2019-Oct-07 06:55N 53°00' E 004°48'0 0.0
2019-Oct-07 06:28N 53°00' E 004°48'0 0.0
2019-Oct-07 05:49N 53°00' E 004°48'0 0.0
2019-Oct-07 05:25N 53°00' E 004°48'0 0.0
2019-Oct-07 04:43N 53°00' E 004°48'0 0.0
2019-Oct-07 04:28N 53°00' E 004°48'0 0.0
2019-Oct-07 03:46N 53°00' E 004°48'0 0.0
2019-Oct-07 03:28N 53°00' E 004°48'0 0.0
2019-Oct-07 02:46N 53°00' E 004°48'0 0.0
2019-Oct-07 01:58N 53°00' E 004°48'0 0.0
2019-Oct-07 01:25N 53°00' E 004°48'0 0.0
2019-Oct-07 00:58N 53°00' E 004°48'0 0.0
2019-Oct-07 00:25N 53°00' E 004°48'0 0.0
2019-Oct-06 23:58N 53°00' E 004°48'0 0.0
2019-Oct-06 23:28N 53°00' E 004°48'0 0.0
2019-Oct-06 22:55N 53°00' E 004°48'0 0.0
2019-Oct-06 22:19N 53°00' E 004°48'0 0.0
2019-Oct-06 21:55N 53°00' E 004°48'0 0.0
2019-Oct-06 21:28N 53°00' E 004°48'0 0.0
2019-Oct-06 20:49N 53°00' E 004°48'0 0.0
2019-Oct-06 20:22N 53°00' E 004°48'0 0.0
2019-Oct-06 19:52N 53°00' E 004°48'0 0.0
2019-Oct-06 19:22N 53°00' E 004°48'0 0.0
2019-Oct-06 18:55N 53°00' E 004°48'0 0.0
2019-Oct-06 18:19N 53°00' E 004°48'0 0.0
2019-Oct-06 17:55N 53°00' E 004°48'0 0.0
2019-Oct-06 17:25N 53°00' E 004°48'0 0.0
2019-Oct-06 16:55N 53°00' E 004°48'0 0.0
2019-Oct-06 16:13N 53°00' E 004°48'0 0.0
2019-Oct-06 15:43N 53°00' E 004°48'0 0.0
2019-Oct-06 15:25N 53°00' E 004°48'0 0.0
2019-Oct-06 14:25N 53°00' E 004°48'0 0.0
2019-Oct-06 13:49N 53°00' E 004°48'0 0.0
2019-Oct-06 13:19N 53°00' E 004°48'0 0.0
2019-Oct-06 12:55N 53°00' E 004°48'0 0.0
2019-Oct-06 12:22N 53°00' E 004°48'0 0.0
2019-Oct-06 11:49N 53°00' E 004°48'0 0.0
2019-Oct-06 11:22N 53°00' E 004°48'0 0.0
2019-Oct-06 10:52N 53°00' E 004°48'0 0.0
2019-Oct-06 10:28N 53°00' E 004°48'0 0.0
2019-Oct-06 09:52N 53°00' E 004°48'0 0.0
2019-Oct-06 09:25N 53°00' E 004°48'0 0.0
2019-Oct-06 08:58N 53°00' E 004°48'0 0.0
2019-Oct-06 08:28N 53°00' E 004°48'0 0.0
2019-Oct-06 07:49N 53°00' E 004°48'0 0.0
2019-Oct-06 07:22N 53°00' E 004°48'0 0.0
2019-Oct-06 06:58N 53°00' E 004°48'0 0.0
2019-Oct-06 06:25N 53°00' E 004°48'0 0.0
2019-Oct-06 05:46N 53°00' E 004°48'0 0.0
2019-Oct-06 05:28N 53°00' E 004°48'0 0.0
2019-Oct-06 04:55N 53°00' E 004°48'0 0.0
2019-Oct-06 04:28N 53°00' E 004°48'0 0.0
2019-Oct-06 03:58N 53°00' E 004°48'0 0.0
2019-Oct-06 03:25N 53°00' E 004°48'0 0.0
2019-Oct-06 02:58N 53°00' E 004°48'0 0.0
2019-Oct-06 02:28N 53°00' E 004°48'0 0.0
2019-Oct-06 01:58N 53°00' E 004°48'0 0.0
2019-Oct-06 01:25N 53°00' E 004°48'0 0.0
2019-Oct-06 00:58N 53°00' E 004°48'0 0.0
2019-Oct-06 00:28N 53°00' E 004°48'0 0.0
2019-Oct-05 23:58N 53°00' E 004°48'0 0.0
2019-Oct-05 23:28N 53°00' E 004°48'0 0.0
2019-Oct-05 22:58N 53°00' E 004°48'0 0.0
2019-Oct-05 22:22N 53°00' E 004°48'0 0.0
2019-Oct-05 21:58N 53°00' E 004°48'0 0.0
2019-Oct-05 21:25N 53°00' E 004°48'0 0.0
2019-Oct-05 20:58N 53°00' E 004°48'0 0.0
2019-Oct-05 20:28N 53°00' E 004°48'0 0.0
2019-Oct-05 19:58N 53°00' E 004°48'0 0.0
2019-Oct-05 19:28N 53°00' E 004°48'0 0.0
2019-Oct-05 18:58N 53°00' E 004°48'0 0.0
2019-Oct-05 18:25N 53°00' E 004°48'0 0.0
2019-Oct-05 17:58N 53°00' E 004°48'0 0.0
2019-Oct-05 17:16N 53°00' E 004°48'0 0.0
2019-Oct-05 16:58N 53°00' E 004°48'0 0.0
2019-Oct-05 16:28N 53°00' E 004°48'0 0.0
2019-Oct-05 15:58N 53°00' E 004°48'0 0.0
2019-Oct-05 15:28N 53°00' E 004°48'0 0.0
2019-Oct-05 14:58N 53°00' E 004°48'0 0.0
2019-Oct-05 14:28N 53°00' E 004°48'0 0.0
2019-Oct-05 13:55N 53°00' E 004°48'0 0.0
2019-Oct-05 13:28N 53°00' E 004°48'0 0.0
2019-Oct-05 12:58N 53°00' E 004°48'0 0.0
2019-Oct-05 12:28N 53°00' E 004°48'0 0.0
2019-Oct-05 11:58N 53°00' E 004°48'0 0.0
2019-Oct-05 11:28N 53°00' E 004°48'0 0.0
2019-Oct-05 10:58N 53°00' E 004°48'0 0.0
2019-Oct-05 10:28N 53°00' E 004°48'0 0.0
2019-Oct-05 10:01N 53°00' E 004°48'0 0.0
2019-Oct-05 09:28N 53°00' E 004°48'0 0.0
2019-Oct-05 08:55N 53°00' E 004°48'0 0.0
2019-Oct-05 08:25N 53°00' E 004°48'0 0.0
2019-Oct-05 07:55N 53°00' E 004°48'0 0.0
2019-Oct-05 06:43N 53°00' E 004°48'0 0.0
2019-Oct-05 06:16N 53°00' E 004°48'0 0.0
2019-Oct-05 05:55N 53°00' E 004°48'0 0.0
2019-Oct-05 05:13N 53°00' E 004°48'0 0.0
2019-Oct-05 04:57N 53°00' E 004°48'0 0.0
2019-Oct-05 04:19N 53°00' E 004°48'0 0.0
2019-Oct-05 03:55N 53°00' E 004°48'0 0.0
2019-Oct-05 03:25N 53°00' E 004°48'0 0.0
2019-Oct-05 02:40N 53°00' E 004°48'0 0.0
2019-Oct-05 02:28N 53°00' E 004°48'0 0.0
2019-Oct-05 01:55N 53°00' E 004°48'0 0.0
2019-Oct-05 01:30N 53°00' E 004°48'0 0.0
2019-Oct-05 00:43N 53°00' E 004°48'0 0.0
2019-Oct-05 00:28N 53°00' E 004°48'0 0.0
2019-Oct-04 16:01N 53°00' E 004°48'0 0.0
2019-Oct-04 14:06N 53°00' E 004°48'0 0.0
2019-Oct-04 13:33N 53°00' E 004°48'0 0.0
2019-Oct-04 13:30N 53°00' E 004°48'0 0.0
2019-Oct-04 12:57N 53°00' E 004°48'0 0.0
2019-Oct-04 12:28N 53°00' E 004°48'0 0.0
2019-Oct-04 11:54N 53°00' E 004°48'0 0.0
2019-Oct-04 11:22N 53°00' E 004°48'0 0.0
2019-Oct-04 11:00N 53°00' E 004°48'0 0.0
2019-Oct-04 10:31N 53°00' E 004°48'0 0.0
2019-Oct-04 09:57N 53°00' E 004°48'0 0.0
2019-Oct-04 09:28N 53°00' E 004°48'0 0.0
2019-Oct-04 08:57N 53°00' E 004°48'0 0.0
2019-Oct-04 07:21N 53°00' E 004°48'0 0.0
2019-Oct-04 07:00N 53°00' E 004°48'0 0.0
2019-Oct-04 06:31N 53°00' E 004°48'0 0.0
2019-Oct-04 06:00N 53°00' E 004°48'0 0.0
2019-Oct-04 05:30N 53°00' E 004°48'0 0.0
2019-Oct-04 05:00N 53°00' E 004°48'0 0.0
2019-Oct-04 04:24N 53°00' E 004°48'0 0.0
2019-Oct-04 04:00N 53°00' E 004°48'0 0.0
2019-Oct-04 03:30N 53°00' E 004°48'0 0.0
2019-Oct-04 03:00N 53°00' E 004°48'0 0.0
2019-Oct-04 02:31N 53°00' E 004°48'0 0.0
2019-Oct-04 02:01N 53°00' E 004°48'0 0.0
2019-Oct-04 01:31N 53°00' E 004°48'0 0.0
2019-Oct-04 01:00N 53°00' E 004°48'0 0.0
2019-Oct-04 00:31N 53°00' E 004°48'0 0.0
2019-Oct-03 23:57N 53°00' E 004°48'0 0.0
2019-Oct-03 23:30N 53°00' E 004°48'0 0.0
2019-Oct-03 23:00N 53°00' E 004°48'0 0.0
2019-Oct-03 22:30N 53°00' E 004°48'0 0.0
2019-Oct-03 22:00N 53°00' E 004°48'0 0.0
2019-Oct-03 21:30N 53°00' E 004°48'0 0.0
2019-Oct-03 21:00N 53°00' E 004°48'0 0.0
2019-Oct-03 20:30N 53°00' E 004°48'0 0.0
2019-Oct-03 19:57N 53°00' E 004°48'0 0.0
2019-Oct-03 19:24N 53°00' E 004°48'0 0.0
2019-Oct-03 18:54N 53°00' E 004°48'0 0.0
2019-Oct-03 18:06N 53°00' E 004°48'0 0.0
2019-Oct-03 17:54N 53°00' E 004°48'0 0.0
2019-Oct-03 17:21N 53°00' E 004°48'0 0.0
2019-Oct-03 16:52N 53°00' E 004°48'1 2.6
2019-Oct-03 16:31N 53°00' E 004°49'0 0.8
2019-Oct-03 16:00N 53°01' E 004°50'0 0.0
2019-Oct-03 15:30N 53°01' E 004°50'0 0.1
2019-Oct-03 15:00N 53°01' E 004°50'0 0.1
2019-Oct-03 14:30N 53°01' E 004°50'0 0.8
2019-Oct-03 14:00N 53°01' E 004°49'1 1.6
2019-Oct-03 13:30N 53°01' E 004°50'1 1.4
2019-Oct-03 13:00N 53°01' E 004°49'1 2.8
2019-Oct-03 12:31N 52°60' E 004°48'2 4.1
2019-Oct-03 12:00N 52°58' E 004°47'0 0.0
2019-Oct-03 11:30N 52°58' E 004°47'3 5.1
2019-Oct-03 10:57N 53°00' E 004°49'2 4.9
2019-Oct-03 10:30N 53°02' E 004°51'2 4.2
2019-Oct-03 10:00N 53°00' E 004°49'1 2.4
2019-Oct-03 09:30N 53°01' E 004°50'1 1.2
2019-Oct-03 08:35N 53°02' E 004°52'0 0.4
2019-Oct-03 08:30N 53°02' E 004°52'1 1.8
2019-Oct-03 08:00N 53°02' E 004°53'0 0.4
2019-Oct-03 07:31N 53°02' E 004°53'2 4.3
2019-Oct-03 07:01N 53°01' E 004°50'2 3.0
2019-Oct-03 06:27N 53°00' E 004°48'0 0.0
2019-Oct-03 05:59N 53°00' E 004°48'0 0.0
2019-Oct-03 05:30N 53°00' E 004°48'0 0.0
2019-Oct-03 04:59N 53°00' E 004°48'0 0.0
2019-Oct-03 04:29N 53°00' E 004°48'0 0.0
2019-Oct-03 03:56N 53°00' E 004°48'0 0.0
2019-Oct-03 03:26N 53°00' E 004°48'0 0.0
2019-Oct-03 02:53N 53°00' E 004°48'0 0.0
2019-Oct-03 02:23N 53°00' E 004°48'0 0.0
2019-Oct-03 01:59N 53°00' E 004°48'0 0.0
2019-Oct-03 01:23N 53°00' E 004°48'0 0.0
2019-Oct-03 00:59N 53°00' E 004°48'0 0.0
2019-Oct-03 00:29N 53°00' E 004°48'0 0.0
2019-Oct-02 23:59N 53°00' E 004°48'0 0.0
2019-Oct-02 23:29N 53°00' E 004°48'0 0.0
2019-Oct-02 22:59N 53°00' E 004°48'0 0.0
2019-Oct-02 22:26N 53°00' E 004°48'0 0.0
2019-Oct-02 21:50N 53°00' E 004°48'0 0.0
2019-Oct-02 21:23N 53°00' E 004°48'0 0.0
2019-Oct-02 20:53N 53°00' E 004°48'0 0.0
2019-Oct-02 20:26N 53°00' E 004°48'0 0.0
2019-Oct-02 19:56N 53°00' E 004°48'0 0.0
2019-Oct-02 19:23N 53°00' E 004°48'0 0.0
2019-Oct-02 18:59N 53°00' E 004°48'0 0.0
2019-Oct-02 18:29N 53°00' E 004°48'0 0.0
2019-Oct-02 17:59N 53°00' E 004°48'0 0.0
2019-Oct-02 17:23N 53°00' E 004°48'0 0.0
2019-Oct-02 16:59N 53°00' E 004°48'0 0.0
2019-Oct-02 16:26N 53°00' E 004°48'0 0.0
2019-Oct-02 15:26N 53°00' E 004°48'0 0.0
2019-Oct-02 14:56N 53°00' E 004°48'0 0.0
2019-Oct-02 14:30N 53°00' E 004°48'0 0.0
2019-Oct-02 13:59N 53°00' E 004°48'0 0.0
2019-Oct-02 13:29N 53°00' E 004°48'0 0.0
2019-Oct-02 12:59N 53°00' E 004°48'0 0.0
2019-Oct-02 12:26N 53°00' E 004°48'0 0.0
2019-Oct-02 11:59N 53°00' E 004°48'0 0.0
2019-Oct-02 11:26N 53°00' E 004°48'0 0.0
2019-Oct-02 10:59N 53°00' E 004°48'0 0.0
2019-Oct-02 10:29N 53°00' E 004°48'0 0.0
2019-Oct-02 10:00N 53°00' E 004°48'2 4.0
2019-Oct-02 09:30N 53°01' E 004°51'0 1.0
2019-Oct-02 09:00N 53°01' E 004°50'1 1.6
2019-Oct-02 08:30N 53°01' E 004°51'0 0.6
2019-Oct-02 08:00N 53°01' E 004°51'1 1.3
2019-Oct-02 07:30N 53°02' E 004°52'1 1.7
2019-Oct-02 07:00N 53°02' E 004°53'0 0.0
2019-Oct-02 06:31N 53°02' E 004°53'2 3.9
2019-Oct-02 06:00N 53°01' E 004°50'0 0.1
2019-Oct-02 05:28N 53°01' E 004°50'0 0.1
2019-Oct-02 04:55N 53°01' E 004°50'0 0.1
2019-Oct-02 04:28N 53°01' E 004°50'0 0.1
2019-Oct-02 04:00N 53°01' E 004°50'0 0.1
2019-Oct-02 03:31N 53°01' E 004°50'0 0.0
2019-Oct-02 02:58N 53°01' E 004°50'0 0.0
2019-Oct-02 02:31N 53°01' E 004°50'0 0.0
2019-Oct-02 01:57N 53°01' E 004°50'0 0.0
2019-Oct-02 01:25N 53°01' E 004°50'0 0.0
2019-Oct-02 00:58N 53°01' E 004°50'0 0.0
2019-Oct-02 00:24N 53°01' E 004°50'0 0.0
2019-Oct-02 00:00N 53°01' E 004°50'0 0.0
2019-Oct-01 23:30N 53°01' E 004°50'0 0.0
2019-Oct-01 23:00N 53°01' E 004°50'0 0.0
2019-Oct-01 22:30N 53°01' E 004°50'0 0.0
2019-Oct-01 22:01N 53°01' E 004°50'0 0.0
2019-Oct-01 21:30N 53°01' E 004°50'0 0.1
2019-Oct-01 20:58N 53°01' E 004°50'0 0.1
2019-Oct-01 20:31N 53°01' E 004°50'0 0.0
2019-Oct-01 19:40N 53°01' E 004°50'0 0.0
2019-Oct-01 17:12N 53°01' E 004°50'0 0.4
2019-Oct-01 17:00N 53°01' E 004°50'0 0.1
2019-Oct-01 16:28N 53°01' E 004°50'0 0.0
2019-Oct-01 15:58N 53°01' E 004°50'0 0.0
2019-Oct-01 15:31N 53°01' E 004°50'0 0.0
2019-Oct-01 14:57N 53°01' E 004°50'1 1.3
2019-Oct-01 14:31N 53°01' E 004°49'1 1.1
2019-Oct-01 14:00N 53°00' E 004°49'0 0.9
2019-Oct-01 13:30N 52°60' E 004°48'1 1.2
2019-Oct-01 13:00N 52°59' E 004°48'1 1.4
2019-Oct-01 12:30N 52°59' E 004°47'1 1.2
2019-Oct-01 12:00N 52°58' E 004°47'1 1.4
2019-Oct-01 11:19N 52°58' E 004°45'0 1.0
2019-Oct-01 10:53N 52°58' E 004°46'2 6.1
2019-Oct-01 10:31N 52°60' E 004°48'1 1.1
2019-Oct-01 10:00N 52°59' E 004°48'3 5.4
2019-Oct-01 09:30N 52°58' E 004°44'1 1.8
2019-Oct-01 09:01N 52°59' E 004°45'0 0.8
2019-Oct-01 08:30N 52°59' E 004°46'0 0.2
2019-Oct-01 08:01N 52°59' E 004°46'0 0.8
2019-Oct-01 07:31N 52°59' E 004°46'0 0.4
2019-Oct-01 07:01N 52°59' E 004°46'1 1.4
2019-Oct-01 06:31N 52°59' E 004°47'2 3.9
2019-Oct-01 06:00N 53°00' E 004°49'1 1.6
2019-Oct-01 05:21N 53°01' E 004°50'0 0.0
2019-Oct-01 04:54N 53°01' E 004°50'0 0.0
2019-Oct-01 04:27N 53°01' E 004°50'0 0.0
2019-Oct-01 04:00N 53°01' E 004°50'0 0.2
2019-Oct-01 03:30N 53°01' E 004°50'0 0.1
2019-Oct-01 03:00N 53°01' E 004°50'0 0.0
2019-Oct-01 02:30N 53°01' E 004°50'0 0.0
2019-Oct-01 02:00N 53°01' E 004°50'0 0.0
2019-Oct-01 01:30N 53°01' E 004°50'0 0.0
2019-Oct-01 00:57N 53°01' E 004°50'0 0.0
2019-Oct-01 00:30N 53°01' E 004°50'0 0.0
2019-Oct-01 00:00N 53°01' E 004°50'0 0.0
2019-Sep-30 23:30N 53°01' E 004°50'0 0.0
2019-Sep-30 23:00N 53°01' E 004°50'0 0.0
2019-Sep-30 22:30N 53°01' E 004°50'0 0.1
2019-Sep-30 22:00N 53°01' E 004°50'0 0.0
2019-Sep-30 21:30N 53°01' E 004°50'0 0.0
2019-Sep-30 20:57N 53°01' E 004°50'0 0.0
2019-Sep-30 20:27N 53°01' E 004°50'0 0.0
2019-Sep-30 19:57N 53°01' E 004°50'0 0.0
2019-Sep-30 19:27N 53°01' E 004°50'0 0.0
2019-Sep-30 18:57N 53°01' E 004°50'0 0.0
2019-Sep-30 18:24N 53°01' E 004°50'0 0.0
2019-Sep-30 17:57N 53°01' E 004°50'0 0.0
2019-Sep-30 17:24N 53°01' E 004°50'0 0.0
2019-Sep-30 17:00N 53°01' E 004°50'0 0.0
2019-Sep-30 16:30N 53°01' E 004°50'0 0.0
2019-Sep-30 16:01N 53°01' E 004°50'2 3.5
2019-Sep-30 15:30N 52°60' E 004°48'2 3.6
2019-Sep-30 15:00N 52°59' E 004°46'2 4.0
2019-Sep-30 14:30N 53°00' E 004°48'0 0.8
2019-Sep-30 14:00N 52°60' E 004°48'1 2.2
2019-Sep-30 13:31N 52°59' E 004°47'1 1.9
2019-Sep-30 13:00N 52°60' E 004°48'1 2.0
2019-Sep-30 12:30N 52°59' E 004°47'1 2.7
2019-Sep-30 12:00N 52°60' E 004°49'2 4.6
2019-Sep-30 11:30N 53°01' E 004°51'2 4.7
2019-Sep-30 11:00N 52°60' E 004°48'1 2.8
2019-Sep-30 10:30N 52°59' E 004°47'1 1.2
2019-Sep-30 10:00N 52°59' E 004°48'2 4.9
2019-Sep-30 09:30N 53°01' E 004°51'2 3.7
2019-Sep-30 09:00N 53°02' E 004°53'2 3.7
2019-Sep-30 08:30N 53°01' E 004°50'1 2.7
2019-Sep-30 08:00N 53°02' E 004°52'0 0.7
2019-Sep-30 07:30N 53°02' E 004°53'2 3.6
2019-Sep-30 07:00N 53°01' E 004°50'2 3.2
2019-Sep-30 06:29N 53°00' E 004°48'0 0.0
2019-Sep-30 05:59N 53°00' E 004°48'0 0.0
2019-Sep-30 05:29N 53°00' E 004°48'0 0.0
2019-Sep-30 04:59N 53°00' E 004°48'0 0.0
2019-Sep-30 04:29N 53°00' E 004°48'0 0.0
2019-Sep-30 03:59N 53°00' E 004°48'0 0.0
2019-Sep-30 03:14N 53°00' E 004°48'0 0.0
2019-Sep-30 02:56N 53°00' E 004°48'0 0.0
2019-Sep-30 02:26N 53°00' E 004°48'0 0.0
2019-Sep-30 01:59N 53°00' E 004°48'0 0.0
2019-Sep-30 01:29N 53°00' E 004°48'0 0.0
2019-Sep-30 00:59N 53°00' E 004°48'0 0.0
2019-Sep-30 00:29N 53°00' E 004°48'0 0.0
2019-Sep-29 23:59N 53°00' E 004°48'0 0.0
2019-Sep-29 23:29N 53°00' E 004°48'0 0.0
2019-Sep-29 22:59N 53°00' E 004°48'0 0.0
2019-Sep-29 22:26N 53°00' E 004°48'0 0.0
2019-Sep-29 21:59N 53°00' E 004°48'0 0.0
2019-Sep-29 21:29N 53°00' E 004°48'0 0.0
2019-Sep-29 20:59N 53°00' E 004°48'0 0.0
2019-Sep-29 20:29N 53°00' E 004°48'0 0.0
2019-Sep-29 19:59N 53°00' E 004°48'0 0.0
2019-Sep-29 19:29N 53°00' E 004°48'0 0.0
2019-Sep-29 18:56N 53°00' E 004°48'0 0.0
2019-Sep-29 18:29N 53°00' E 004°48'0 0.0
2019-Sep-29 17:59N 53°00' E 004°48'0 0.0
2019-Sep-29 17:29N 53°00' E 004°48'0 0.0
2019-Sep-29 16:59N 53°00' E 004°48'0 0.0
2019-Sep-29 16:29N 53°00' E 004°48'0 0.0
2019-Sep-29 15:56N 53°00' E 004°48'0 0.0
2019-Sep-29 15:29N 53°00' E 004°48'0 0.0
2019-Sep-29 14:59N 53°00' E 004°48'0 0.0
2019-Sep-29 14:29N 53°00' E 004°48'0 0.0
2019-Sep-29 13:59N 53°00' E 004°48'0 0.0
2019-Sep-29 13:29N 53°00' E 004°48'0 0.0
2019-Sep-29 12:56N 53°00' E 004°48'0 0.0
2019-Sep-29 12:29N 53°00' E 004°48'0 0.0
2019-Sep-29 11:59N 53°00' E 004°48'0 0.0
2019-Sep-29 11:29N 53°00' E 004°48'0 0.0
2019-Sep-29 10:59N 53°00' E 004°48'0 0.0
2019-Sep-29 10:29N 53°00' E 004°48'0 0.0
2019-Sep-29 09:59N 53°00' E 004°48'0 0.0
2019-Sep-29 09:26N 53°00' E 004°48'0 0.0
2019-Sep-29 08:59N 53°00' E 004°48'0 0.0
2019-Sep-29 08:29N 53°00' E 004°48'0 0.0
2019-Sep-29 07:59N 53°00' E 004°48'0 0.0
2019-Sep-29 07:29N 53°00' E 004°48'0 0.0
2019-Sep-29 06:56N 53°00' E 004°48'0 0.0
2019-Sep-29 06:29N 53°00' E 004°48'0 0.0
2019-Sep-29 05:59N 53°00' E 004°48'0 0.0
2019-Sep-29 05:26N 53°00' E 004°48'0 0.0
2019-Sep-29 04:59N 53°00' E 004°48'0 0.0
2019-Sep-29 04:29N 53°00' E 004°48'0 0.0
2019-Sep-29 03:59N 53°00' E 004°48'0 0.0
2019-Sep-29 03:11N 53°00' E 004°48'0 0.0
2019-Sep-29 02:59N 53°00' E 004°48'0 0.0
2019-Sep-29 02:29N 53°00' E 004°48'0 0.0
2019-Sep-29 01:59N 53°00' E 004°48'0 0.0
2019-Sep-29 01:29N 53°00' E 004°48'0 0.0
2019-Sep-29 00:59N 53°00' E 004°48'0 0.0
2019-Sep-29 00:29N 53°00' E 004°48'0 0.0
2019-Sep-28 23:59N 53°00' E 004°48'0 0.0
2019-Sep-28 23:29N 53°00' E 004°48'0 0.0
2019-Sep-28 22:59N 53°00' E 004°48'0 0.0
2019-Sep-28 22:29N 53°00' E 004°48'0 0.0
2019-Sep-28 21:59N 53°00' E 004°48'0 0.0
2019-Sep-28 21:29N 53°00' E 004°48'0 0.0
2019-Sep-28 20:59N 53°00' E 004°48'0 0.0
2019-Sep-28 20:29N 53°00' E 004°48'0 0.0
2019-Sep-28 19:59N 53°00' E 004°48'  
Track history (hours):
 
Tides and Currents Weather Stations Pressure Air Temp Water Temp Dewpoint Dewpoint Depression Visibility Wind Speed Wind Dir Waves Ship Positions

Oceanographic research ship Pelagia (Netherlands)

Detailed information on ship capabilities available from University of Delaware's Ocean Information Center and ARCUS's ALIAS (Arctic Logistics Information and Support) project.

Last reported at 2019-Oct-08 19:50 UTC. Time now 2019-Oct-14 10:26 UTC.
Position N 53°39' E 005°21'.

Length 66 m; beam 13 m.

Type: Dredging. MMSI: 244925000.

Date/timePositionNaut miles runAvg speedWind from/ knotsBaromVisibWave heightAir tempDewpointWater temp
2019-Oct-08 19:50N 53°39' E 005°21'1 1.8
2019-Oct-08 19:06N 53°40' E 005°19'1 3.1
2019-Oct-08 18:56N 53°39' E 005°20'1 2.5
2019-Oct-08 18:24N 53°39' E 005°22'1 0.4
2019-Oct-08 16:35N 53°39' E 005°21'0 1.6
2019-Oct-08 16:23N 53°39' E 005°20'1 0.4
2019-Oct-08 14:58N 53°40' E 005°20'0 0.2
2019-Oct-08 12:58N 53°40' E 005°19'0 0.2
2019-Oct-08 11:19N 53°40' E 005°20'3 0.4
2019-Oct-08 04:27N 53°42' E 005°23'3 5.5
2019-Oct-08 03:59N 53°41' E 005°19'3 6.3
2019-Oct-08 03:30N 53°38' E 005°19'4 9.0
2019-Oct-08 03:01N 53°33' E 005°22'3 6.5
2019-Oct-08 02:30N 53°30' E 005°22'3 6.8
2019-Oct-08 02:00N 53°29' E 005°16'4 6.9
2019-Oct-08 01:29N 53°28' E 005°11'3 7.0
2019-Oct-08 01:00N 53°26' E 005°05'4 7.4
2019-Oct-08 00:30N 53°25' E 004°60'2 4.4
2019-Oct-08 00:01N 53°23' E 004°59'1 1.5
2019-Oct-07 23:31N 53°23' E 004°60'0 0.4
2019-Oct-07 22:58N 53°22' E 004°59'1 1.3
2019-Oct-07 22:27N 53°22' E 004°59'1 1.2
2019-Oct-07 22:00N 53°22' E 004°59'0 0.9
2019-Oct-07 21:30N 53°22' E 004°59'0 0.3
2019-Oct-07 20:56N 53°22' E 004°59'1 3.3
2019-Oct-07 20:30N 53°21' E 004°57'11 9.3
2019-Oct-07 19:18N 53°13' E 004°45'3 9.7
2019-Oct-07 18:58N 53°10' E 004°42'4 9.6
2019-Oct-07 18:30N 53°06' E 004°40'5 9.7
2019-Oct-07 18:00N 53°02' E 004°36'3 7.0
2019-Oct-07 17:30N 52°58' E 004°33'2 0.9
2019-Oct-07 15:29N 52°57' E 004°33'4 9.5
2019-Oct-07 15:00N 52°52' E 004°35'9 7.4
2019-Oct-07 13:51N 52°59' E 004°44'3 8.4
2019-Oct-07 13:30N 53°00' E 004°48'0 0.5
2019-Oct-07 12:52N 53°00' E 004°48'0 0.0
2019-Oct-07 12:25N 53°00' E 004°48'0 0.0
2019-Oct-07 11:43N 53°00' E 004°48'0 0.0
2019-Oct-07 11:28N 53°00' E 004°48'0 0.0
2019-Oct-07 10:55N 53°00' E 004°48'0 0.0
2019-Oct-07 10:28N 53°00' E 004°48'0 0.0
2019-Oct-07 09:55N 53°00' E 004°48'0 0.0
2019-Oct-07 09:28N 53°00' E 004°48'0 0.0
2019-Oct-07 08:55N 53°00' E 004°48'0 0.0
2019-Oct-07 08:25N 53°00' E 004°48'0 0.0
2019-Oct-07 07:52N 53°00' E 004°48'0 0.0
2019-Oct-07 07:28N 53°00' E 004°48'0 0.0
2019-Oct-07 06:55N 53°00' E 004°48'0 0.0
2019-Oct-07 06:28N 53°00' E 004°48'0 0.0
2019-Oct-07 05:49N 53°00' E 004°48'0 0.0
2019-Oct-07 05:25N 53°00' E 004°48'0 0.0
2019-Oct-07 04:43N 53°00' E 004°48'0 0.0
2019-Oct-07 04:28N 53°00' E 004°48'0 0.0
2019-Oct-07 03:46N 53°00' E 004°48'0 0.0
2019-Oct-07 03:28N 53°00' E 004°48'0 0.0
2019-Oct-07 02:46N 53°00' E 004°48'0 0.0
2019-Oct-07 01:58N 53°00' E 004°48'0 0.0
2019-Oct-07 01:25N 53°00' E 004°48'0 0.0
2019-Oct-07 00:58N 53°00' E 004°48'0 0.0
2019-Oct-07 00:25N 53°00' E 004°48'0 0.0
2019-Oct-06 23:58N 53°00' E 004°48'0 0.0
2019-Oct-06 23:28N 53°00' E 004°48'0 0.0
2019-Oct-06 22:55N 53°00' E 004°48'0 0.0
2019-Oct-06 22:19N 53°00' E 004°48'0 0.0
2019-Oct-06 21:55N 53°00' E 004°48'0 0.0
2019-Oct-06 21:28N 53°00' E 004°48'0 0.0
2019-Oct-06 20:49N 53°00' E 004°48'0 0.0
2019-Oct-06 20:22N 53°00' E 004°48'0 0.0
2019-Oct-06 19:52N 53°00' E 004°48'0 0.0
2019-Oct-06 19:22N 53°00' E 004°48'0 0.0
2019-Oct-06 18:55N 53°00' E 004°48'0 0.0
2019-Oct-06 18:19N 53°00' E 004°48'0 0.0
2019-Oct-06 17:55N 53°00' E 004°48'0 0.0
2019-Oct-06 17:25N 53°00' E 004°48'0 0.0
2019-Oct-06 16:55N 53°00' E 004°48'0 0.0
2019-Oct-06 16:13N 53°00' E 004°48'0 0.0
2019-Oct-06 15:43N 53°00' E 004°48'0 0.0
2019-Oct-06 15:25N 53°00' E 004°48'0 0.0
2019-Oct-06 14:25N 53°00' E 004°48'0 0.0
2019-Oct-06 13:49N 53°00' E 004°48'0 0.0
2019-Oct-06 13:19N 53°00' E 004°48'0 0.0
2019-Oct-06 12:55N 53°00' E 004°48'0 0.0
2019-Oct-06 12:22N 53°00' E 004°48'0 0.0
2019-Oct-06 11:49N 53°00' E 004°48'0 0.0
2019-Oct-06 11:22N 53°00' E 004°48'0 0.0
2019-Oct-06 10:52N 53°00' E 004°48'0 0.0
2019-Oct-06 10:28N 53°00' E 004°48'0 0.0
2019-Oct-06 09:52N 53°00' E 004°48'0 0.0
2019-Oct-06 09:25N 53°00' E 004°48'0 0.0
2019-Oct-06 08:58N 53°00' E 004°48'0 0.0
2019-Oct-06 08:28N 53°00' E 004°48'0 0.0
2019-Oct-06 07:49N 53°00' E 004°48'0 0.0
2019-Oct-06 07:22N 53°00' E 004°48'0 0.0
2019-Oct-06 06:58N 53°00' E 004°48'0 0.0
2019-Oct-06 06:25N 53°00' E 004°48'0 0.0
2019-Oct-06 05:46N 53°00' E 004°48'0 0.0
2019-Oct-06 05:28N 53°00' E 004°48'0 0.0
2019-Oct-06 04:55N 53°00' E 004°48'0 0.0
2019-Oct-06 04:28N 53°00' E 004°48'0 0.0
2019-Oct-06 03:58N 53°00' E 004°48'0 0.0
2019-Oct-06 03:25N 53°00' E 004°48'0 0.0
2019-Oct-06 02:58N 53°00' E 004°48'0 0.0
2019-Oct-06 02:28N 53°00' E 004°48'0 0.0
2019-Oct-06 01:58N 53°00' E 004°48'0 0.0
2019-Oct-06 01:25N 53°00' E 004°48'0 0.0
2019-Oct-06 00:58N 53°00' E 004°48'0 0.0
2019-Oct-06 00:28N 53°00' E 004°48'0 0.0
2019-Oct-05 23:58N 53°00' E 004°48'0 0.0
2019-Oct-05 23:28N 53°00' E 004°48'0 0.0
2019-Oct-05 22:58N 53°00' E 004°48'0 0.0
2019-Oct-05 22:22N 53°00' E 004°48'0 0.0
2019-Oct-05 21:58N 53°00' E 004°48'0 0.0
2019-Oct-05 21:25N 53°00' E 004°48'0 0.0
2019-Oct-05 20:58N 53°00' E 004°48'0 0.0
2019-Oct-05 20:28N 53°00' E 004°48'0 0.0
2019-Oct-05 19:58N 53°00' E 004°48'0 0.0
2019-Oct-05 19:28N 53°00' E 004°48'0 0.0
2019-Oct-05 18:58N 53°00' E 004°48'0 0.0
2019-Oct-05 18:25N 53°00' E 004°48'0 0.0
2019-Oct-05 17:58N 53°00' E 004°48'0 0.0
2019-Oct-05 17:16N 53°00' E 004°48'0 0.0
2019-Oct-05 16:58N 53°00' E 004°48'0 0.0
2019-Oct-05 16:28N 53°00' E 004°48'0 0.0
2019-Oct-05 15:58N 53°00' E 004°48'0 0.0
2019-Oct-05 15:28N 53°00' E 004°48'0 0.0
2019-Oct-05 14:58N 53°00' E 004°48'0 0.0
2019-Oct-05 14:28N 53°00' E 004°48'0 0.0
2019-Oct-05 13:55N 53°00' E 004°48'0 0.0
2019-Oct-05 13:28N 53°00' E 004°48'0 0.0
2019-Oct-05 12:58N 53°00' E 004°48'0 0.0
2019-Oct-05 12:28N 53°00' E 004°48'0 0.0
2019-Oct-05 11:58N 53°00' E 004°48'0 0.0
2019-Oct-05 11:28N 53°00' E 004°48'0 0.0
2019-Oct-05 10:58N 53°00' E 004°48'0 0.0
2019-Oct-05 10:28N 53°00' E 004°48'0 0.0
2019-Oct-05 10:01N 53°00' E 004°48'0 0.0
2019-Oct-05 09:28N 53°00' E 004°48'0 0.0
2019-Oct-05 08:55N 53°00' E 004°48'0 0.0
2019-Oct-05 08:25N 53°00' E 004°48'0 0.0
2019-Oct-05 07:55N 53°00' E 004°48'0 0.0
2019-Oct-05 06:43N 53°00' E 004°48'0 0.0
2019-Oct-05 06:16N 53°00' E 004°48'0 0.0
2019-Oct-05 05:55N 53°00' E 004°48'0 0.0
2019-Oct-05 05:13N 53°00' E 004°48'0 0.0
2019-Oct-05 04:57N 53°00' E 004°48'0 0.0
2019-Oct-05 04:19N 53°00' E 004°48'0 0.0
2019-Oct-05 03:55N 53°00' E 004°48'0 0.0
2019-Oct-05 03:25N 53°00' E 004°48'0 0.0
2019-Oct-05 02:40N 53°00' E 004°48'0 0.0
2019-Oct-05 02:28N 53°00' E 004°48'0 0.0
2019-Oct-05 01:55N 53°00' E 004°48'0 0.0
2019-Oct-05 01:30N 53°00' E 004°48'0 0.0
2019-Oct-05 00:43N 53°00' E 004°48'0 0.0
2019-Oct-05 00:28N 53°00' E 004°48'0 0.0
2019-Oct-04 16:01N 53°00' E 004°48'0 0.0
2019-Oct-04 14:06N 53°00' E 004°48'0 0.0
2019-Oct-04 13:33N 53°00' E 004°48'0 0.0
2019-Oct-04 13:30N 53°00' E 004°48'0 0.0
2019-Oct-04 12:57N 53°00' E 004°48'0 0.0
2019-Oct-04 12:28N 53°00' E 004°48'0 0.0
2019-Oct-04 11:54N 53°00' E 004°48'0 0.0
2019-Oct-04 11:22N 53°00' E 004°48'0 0.0
2019-Oct-04 11:00N 53°00' E 004°48'0 0.0
2019-Oct-04 10:31N 53°00' E 004°48'0 0.0
2019-Oct-04 09:57N 53°00' E 004°48'0 0.0
2019-Oct-04 09:28N 53°00' E 004°48'0 0.0
2019-Oct-04 08:57N 53°00' E 004°48'0 0.0
2019-Oct-04 07:21N 53°00' E 004°48'0 0.0
2019-Oct-04 07:00N 53°00' E 004°48'0 0.0
2019-Oct-04 06:31N 53°00' E 004°48'0 0.0
2019-Oct-04 06:00N 53°00' E 004°48'0 0.0
2019-Oct-04 05:30N 53°00' E 004°48'0 0.0
2019-Oct-04 05:00N 53°00' E 004°48'0 0.0
2019-Oct-04 04:24N 53°00' E 004°48'0 0.0
2019-Oct-04 04:00N 53°00' E 004°48'0 0.0
2019-Oct-04 03:30N 53°00' E 004°48'0 0.0
2019-Oct-04 03:00N 53°00' E 004°48'0 0.0
2019-Oct-04 02:31N 53°00' E 004°48'0 0.0
2019-Oct-04 02:01N 53°00' E 004°48'0 0.0
2019-Oct-04 01:31N 53°00' E 004°48'0 0.0
2019-Oct-04 01:00N 53°00' E 004°48'0 0.0
2019-Oct-04 00:31N 53°00' E 004°48'0 0.0
2019-Oct-03 23:57N 53°00' E 004°48'0 0.0
2019-Oct-03 23:30N 53°00' E 004°48'0 0.0
2019-Oct-03 23:00N 53°00' E 004°48'0 0.0
2019-Oct-03 22:30N 53°00' E 004°48'0 0.0
2019-Oct-03 22:00N 53°00' E 004°48'0 0.0
2019-Oct-03 21:30N 53°00' E 004°48'0 0.0
2019-Oct-03 21:00N 53°00' E 004°48'0 0.0
2019-Oct-03 20:30N 53°00' E 004°48'0 0.0
2019-Oct-03 19:57N 53°00' E 004°48'0 0.0
2019-Oct-03 19:24N 53°00' E 004°48'0 0.0
2019-Oct-03 18:54N 53°00' E 004°48'0 0.0
2019-Oct-03 18:06N 53°00' E 004°48'0 0.0
2019-Oct-03 17:54N 53°00' E 004°48'0 0.0
2019-Oct-03 17:21N 53°00' E 004°48'0 0.0
2019-Oct-03 16:52N 53°00' E 004°48'1 2.6
2019-Oct-03 16:31N 53°00' E 004°49'0 0.8
2019-Oct-03 16:00N 53°01' E 004°50'0 0.0
2019-Oct-03 15:30N 53°01' E 004°50'0 0.1
2019-Oct-03 15:00N 53°01' E 004°50'0 0.1
2019-Oct-03 14:30N 53°01' E 004°50'0 0.8
2019-Oct-03 14:00N 53°01' E 004°49'1 1.6
2019-Oct-03 13:30N 53°01' E 004°50'1 1.4
2019-Oct-03 13:00N 53°01' E 004°49'1 2.8
2019-Oct-03 12:31N 52°60' E 004°48'2 4.1
2019-Oct-03 12:00N 52°58' E 004°47'0 0.0
2019-Oct-03 11:30N 52°58' E 004°47'3 5.1
2019-Oct-03 10:57N 53°00' E 004°49'2 4.9
2019-Oct-03 10:30N 53°02' E 004°51'2 4.2
2019-Oct-03 10:00N 53°00' E 004°49'1 2.4
2019-Oct-03 09:30N 53°01' E 004°50'1 1.2
2019-Oct-03 08:35N 53°02' E 004°52'0 0.4
2019-Oct-03 08:30N 53°02' E 004°52'1 1.8
2019-Oct-03 08:00N 53°02' E 004°53'0 0.4
2019-Oct-03 07:31N 53°02' E 004°53'2 4.3
2019-Oct-03 07:01N 53°01' E 004°50'2 3.0
2019-Oct-03 06:27N 53°00' E 004°48'0 0.0
2019-Oct-03 05:59N 53°00' E 004°48'0 0.0
2019-Oct-03 05:30N 53°00' E 004°48'0 0.0
2019-Oct-03 04:59N 53°00' E 004°48'0 0.0
2019-Oct-03 04:29N 53°00' E 004°48'0 0.0
2019-Oct-03 03:56N 53°00' E 004°48'0 0.0
2019-Oct-03 03:26N 53°00' E 004°48'0 0.0
2019-Oct-03 02:53N 53°00' E 004°48'0 0.0
2019-Oct-03 02:23N 53°00' E 004°48'0 0.0
2019-Oct-03 01:59N 53°00' E 004°48'0 0.0
2019-Oct-03 01:23N 53°00' E 004°48'0 0.0
2019-Oct-03 00:59N 53°00' E 004°48'0 0.0
2019-Oct-03 00:29N 53°00' E 004°48'0 0.0
2019-Oct-02 23:59N 53°00' E 004°48'0 0.0
2019-Oct-02 23:29N 53°00' E 004°48'0 0.0
2019-Oct-02 22:59N 53°00' E 004°48'0 0.0
2019-Oct-02 22:26N 53°00' E 004°48'0 0.0
2019-Oct-02 21:50N 53°00' E 004°48'0 0.0
2019-Oct-02 21:23N 53°00' E 004°48'0 0.0
2019-Oct-02 20:53N 53°00' E 004°48'0 0.0
2019-Oct-02 20:26N 53°00' E 004°48'0 0.0
2019-Oct-02 19:56N 53°00' E 004°48'0 0.0
2019-Oct-02 19:23N 53°00' E 004°48'0 0.0
2019-Oct-02 18:59N 53°00' E 004°48'0 0.0
2019-Oct-02 18:29N 53°00' E 004°48'0 0.0
2019-Oct-02 17:59N 53°00' E 004°48'0 0.0
2019-Oct-02 17:23N 53°00' E 004°48'0 0.0
2019-Oct-02 16:59N 53°00' E 004°48'0 0.0
2019-Oct-02 16:26N 53°00' E 004°48'0 0.0
2019-Oct-02 15:26N 53°00' E 004°48'0 0.0
2019-Oct-02 14:56N 53°00' E 004°48'0 0.0
2019-Oct-02 14:30N 53°00' E 004°48'0 0.0
2019-Oct-02 13:59N 53°00' E 004°48'0 0.0
2019-Oct-02 13:29N 53°00' E 004°48'0 0.0
2019-Oct-02 12:59N 53°00' E 004°48'0 0.0
2019-Oct-02 12:26N 53°00' E 004°48'0 0.0
2019-Oct-02 11:59N 53°00' E 004°48'0 0.0
2019-Oct-02 11:26N 53°00' E 004°48'0 0.0
2019-Oct-02 10:59N 53°00' E 004°48'0 0.0
2019-Oct-02 10:29N 53°00' E 004°48'0 0.0
2019-Oct-02 10:00N 53°00' E 004°48'2 4.0
2019-Oct-02 09:30N 53°01' E 004°51'0 1.0
2019-Oct-02 09:00N 53°01' E 004°50'1 1.6
2019-Oct-02 08:30N 53°01' E 004°51'0 0.6
2019-Oct-02 08:00N 53°01' E 004°51'1 1.3
2019-Oct-02 07:30N 53°02' E 004°52'1 1.7
2019-Oct-02 07:00N 53°02' E 004°53'0 0.0
2019-Oct-02 06:31N 53°02' E 004°53'2 3.9
2019-Oct-02 06:00N 53°01' E 004°50'0 0.1
2019-Oct-02 05:28N 53°01' E 004°50'0 0.1
2019-Oct-02 04:55N 53°01' E 004°50'0 0.1
2019-Oct-02 04:28N 53°01' E 004°50'0 0.1
2019-Oct-02 04:00N 53°01' E 004°50'0 0.1
2019-Oct-02 03:31N 53°01' E 004°50'0 0.0
2019-Oct-02 02:58N 53°01' E 004°50'0 0.0
2019-Oct-02 02:31N 53°01' E 004°50'0 0.0
2019-Oct-02 01:57N 53°01' E 004°50'0 0.0
2019-Oct-02 01:25N 53°01' E 004°50'0 0.0
2019-Oct-02 00:58N 53°01' E 004°50'0 0.0
2019-Oct-02 00:24N 53°01' E 004°50'0 0.0
2019-Oct-02 00:00N 53°01' E 004°50'0 0.0
2019-Oct-01 23:30N 53°01' E 004°50'0 0.0
2019-Oct-01 23:00N 53°01' E 004°50'0 0.0
2019-Oct-01 22:30N 53°01' E 004°50'0 0.0
2019-Oct-01 22:01N 53°01' E 004°50'0 0.0
2019-Oct-01 21:30N 53°01' E 004°50'0 0.1
2019-Oct-01 20:58N 53°01' E 004°50'0 0.1
2019-Oct-01 20:31N 53°01' E 004°50'0 0.0
2019-Oct-01 19:40N 53°01' E 004°50'0 0.0
2019-Oct-01 17:12N 53°01' E 004°50'0 0.4
2019-Oct-01 17:00N 53°01' E 004°50'0 0.1
2019-Oct-01 16:28N 53°01' E 004°50'0 0.0
2019-Oct-01 15:58N 53°01' E 004°50'0 0.0
2019-Oct-01 15:31N 53°01' E 004°50'0 0.0
2019-Oct-01 14:57N 53°01' E 004°50'1 1.3
2019-Oct-01 14:31N 53°01' E 004°49'1 1.1
2019-Oct-01 14:00N 53°00' E 004°49'0 0.9
2019-Oct-01 13:30N 52°60' E 004°48'1 1.2
2019-Oct-01 13:00N 52°59' E 004°48'1 1.4
2019-Oct-01 12:30N 52°59' E 004°47'1 1.2
2019-Oct-01 12:00N 52°58' E 004°47'1 1.4
2019-Oct-01 11:19N 52°58' E 004°45'0 1.0
2019-Oct-01 10:53N 52°58' E 004°46'2 6.1
2019-Oct-01 10:31N 52°60' E 004°48'1 1.1
2019-Oct-01 10:00N 52°59' E 004°48'3 5.4
2019-Oct-01 09:30N 52°58' E 004°44'1 1.8
2019-Oct-01 09:01N 52°59' E 004°45'0 0.8
2019-Oct-01 08:30N 52°59' E 004°46'0 0.2
2019-Oct-01 08:01N 52°59' E 004°46'0 0.8
2019-Oct-01 07:31N 52°59' E 004°46'0 0.4
2019-Oct-01 07:01N 52°59' E 004°46'1 1.4
2019-Oct-01 06:31N 52°59' E 004°47'2 3.9
2019-Oct-01 06:00N 53°00' E 004°49'1 1.6
2019-Oct-01 05:21N 53°01' E 004°50'0 0.0
2019-Oct-01 04:54N 53°01' E 004°50'0 0.0
2019-Oct-01 04:27N 53°01' E 004°50'0 0.0
2019-Oct-01 04:00N 53°01' E 004°50'0 0.2
2019-Oct-01 03:30N 53°01' E 004°50'0 0.1
2019-Oct-01 03:00N 53°01' E 004°50'0 0.0
2019-Oct-01 02:30N 53°01' E 004°50'0 0.0
2019-Oct-01 02:00N 53°01' E 004°50'0 0.0
2019-Oct-01 01:30N 53°01' E 004°50'0 0.0
2019-Oct-01 00:57N 53°01' E 004°50'0 0.0
2019-Oct-01 00:30N 53°01' E 004°50'0 0.0
2019-Oct-01 00:00N 53°01' E 004°50'0 0.0
2019-Sep-30 23:30N 53°01' E 004°50'0 0.0
2019-Sep-30 23:00N 53°01' E 004°50'0 0.0
2019-Sep-30 22:30N 53°01' E 004°50'0 0.1
2019-Sep-30 22:00N 53°01' E 004°50'0 0.0
2019-Sep-30 21:30N 53°01' E 004°50'0 0.0
2019-Sep-30 20:57N 53°01' E 004°50'0 0.0
2019-Sep-30 20:27N 53°01' E 004°50'0 0.0
2019-Sep-30 19:57N 53°01' E 004°50'0 0.0
2019-Sep-30 19:27N 53°01' E 004°50'0 0.0
2019-Sep-30 18:57N 53°01' E 004°50'0 0.0
2019-Sep-30 18:24N 53°01' E 004°50'0 0.0
2019-Sep-30 17:57N 53°01' E 004°50'0 0.0
2019-Sep-30 17:24N 53°01' E 004°50'0 0.0
2019-Sep-30 17:00N 53°01' E 004°50'0 0.0
2019-Sep-30 16:30N 53°01' E 004°50'0 0.0
2019-Sep-30 16:01N 53°01' E 004°50'2 3.5
2019-Sep-30 15:30N 52°60' E 004°48'2 3.6
2019-Sep-30 15:00N 52°59' E 004°46'2 4.0
2019-Sep-30 14:30N 53°00' E 004°48'0 0.8
2019-Sep-30 14:00N 52°60' E 004°48'1 2.2
2019-Sep-30 13:31N 52°59' E 004°47'1 1.9
2019-Sep-30 13:00N 52°60' E 004°48'1 2.0
2019-Sep-30 12:30N 52°59' E 004°47'1 2.7
2019-Sep-30 12:00N 52°60' E 004°49'2 4.6
2019-Sep-30 11:30N 53°01' E 004°51'2 4.7
2019-Sep-30 11:00N 52°60' E 004°48'1 2.8
2019-Sep-30 10:30N 52°59' E 004°47'1 1.2
2019-Sep-30 10:00N 52°59' E 004°48'2 4.9
2019-Sep-30 09:30N 53°01' E 004°51'2 3.7
2019-Sep-30 09:00N 53°02' E 004°53'2 3.7
2019-Sep-30 08:30N 53°01' E 004°50'1 2.7
2019-Sep-30 08:00N 53°02' E 004°52'0 0.7
2019-Sep-30 07:30N 53°02' E 004°53'2 3.6
2019-Sep-30 07:00N 53°01' E 004°50'2 3.2
2019-Sep-30 06:29N 53°00' E 004°48'0 0.0
2019-Sep-30 05:59N 53°00' E 004°48'0 0.0
2019-Sep-30 05:29N 53°00' E 004°48'0 0.0
2019-Sep-30 04:59N 53°00' E 004°48'0 0.0
2019-Sep-30 04:29N 53°00' E 004°48'0 0.0
2019-Sep-30 03:59N 53°00' E 004°48'0 0.0
2019-Sep-30 03:14N 53°00' E 004°48'0 0.0
2019-Sep-30 02:56N 53°00' E 004°48'0 0.0
2019-Sep-30 02:26N 53°00' E 004°48'0 0.0
2019-Sep-30 01:59N 53°00' E 004°48'0 0.0
2019-Sep-30 01:29N 53°00' E 004°48'0 0.0
2019-Sep-30 00:59N 53°00' E 004°48'0 0.0
2019-Sep-30 00:29N 53°00' E 004°48'0 0.0
2019-Sep-29 23:59N 53°00' E 004°48'0 0.0
2019-Sep-29 23:29N 53°00' E 004°48'0 0.0
2019-Sep-29 22:59N 53°00' E 004°48'0 0.0
2019-Sep-29 22:26N 53°00' E 004°48'0 0.0
2019-Sep-29 21:59N 53°00' E 004°48'0 0.0
2019-Sep-29 21:29N 53°00' E 004°48'0 0.0
2019-Sep-29 20:59N 53°00' E 004°48'0 0.0
2019-Sep-29 20:29N 53°00' E 004°48'0 0.0
2019-Sep-29 19:59N 53°00' E 004°48'0 0.0
2019-Sep-29 19:29N 53°00' E 004°48'0 0.0
2019-Sep-29 18:56N 53°00' E 004°48'0 0.0
2019-Sep-29 18:29N 53°00' E 004°48'0 0.0
2019-Sep-29 17:59N 53°00' E 004°48'0 0.0
2019-Sep-29 17:29N 53°00' E 004°48'0 0.0
2019-Sep-29 16:59N 53°00' E 004°48'0 0.0
2019-Sep-29 16:29N 53°00' E 004°48'0 0.0
2019-Sep-29 15:56N 53°00' E 004°48'0 0.0
2019-Sep-29 15:29N 53°00' E 004°48'0 0.0
2019-Sep-29 14:59N 53°00' E 004°48'0 0.0
2019-Sep-29 14:29N 53°00' E 004°48'0 0.0
2019-Sep-29 13:59N 53°00' E 004°48'0 0.0
2019-Sep-29 13:29N 53°00' E 004°48'0 0.0
2019-Sep-29 12:56N 53°00' E 004°48'0 0.0
2019-Sep-29 12:29N 53°00' E 004°48'0 0.0
2019-Sep-29 11:59N 53°00' E 004°48'0 0.0
2019-Sep-29 11:29N 53°00' E 004°48'0 0.0
2019-Sep-29 10:59N 53°00' E 004°48'0 0.0
2019-Sep-29 10:29N 53°00' E 004°48'0 0.0
2019-Sep-29 09:59N 53°00' E 004°48'0 0.0
2019-Sep-29 09:26N 53°00' E 004°48'0 0.0
2019-Sep-29 08:59N 53°00' E 004°48'0 0.0
2019-Sep-29 08:29N 53°00' E 004°48'0 0.0
2019-Sep-29 07:59N 53°00' E 004°48'0 0.0
2019-Sep-29 07:29N 53°00' E 004°48'0 0.0
2019-Sep-29 06:56N 53°00' E 004°48'0 0.0
2019-Sep-29 06:29N 53°00' E 004°48'0 0.0
2019-Sep-29 05:59N 53°00' E 004°48'0 0.0
2019-Sep-29 05:26N 53°00' E 004°48'0 0.0
2019-Sep-29 04:59N 53°00' E 004°48'0 0.0
2019-Sep-29 04:29N 53°00' E 004°48'0 0.0
2019-Sep-29 03:59N 53°00' E 004°48'0 0.0
2019-Sep-29 03:11N 53°00' E 004°48'0 0.0
2019-Sep-29 02:59N 53°00' E 004°48'0 0.0
2019-Sep-29 02:29N 53°00' E 004°48'0 0.0
2019-Sep-29 01:59N 53°00' E 004°48'0 0.0
2019-Sep-29 01:29N 53°00' E 004°48'0 0.0
2019-Sep-29 00:59N 53°00' E 004°48'0 0.0
2019-Sep-29 00:29N 53°00' E 004°48'0 0.0
2019-Sep-28 23:59N 53°00' E 004°48'0 0.0
2019-Sep-28 23:29N 53°00' E 004°48'0 0.0
2019-Sep-28 22:59N 53°00' E 004°48'0 0.0
2019-Sep-28 22:29N 53°00' E 004°48'0 0.0
2019-Sep-28 21:59N 53°00' E 004°48'0 0.0
2019-Sep-28 21:29N 53°00' E 004°48'0 0.0
2019-Sep-28 20:59N 53°00' E 004°48'0 0.0
2019-Sep-28 20:29N 53°00' E 004°48'0 0.0
2019-Sep-28 19:59N 53°00' E 004°48'  

Dump ship's entire track history